sensor_id;sensor_type;location;lat;lon;timestamp;P1;durP1;ratioP1;P2;durP2;ratioP2
3591;SDS011;1810;48.720;9.094;2023-03-14T00:02:21;736.70;;;691.13;;
3591;SDS011;1810;48.720;9.094;2023-03-14T00:04:49;729.50;;;685.33;;
3591;SDS011;1810;48.720;9.094;2023-03-14T00:07:22;714.58;;;671.15;;
3591;SDS011;1810;48.720;9.094;2023-03-14T00:09:51;728.95;;;684.33;;
3591;SDS011;1810;48.720;9.094;2023-03-14T00:12:20;717.95;;;674.83;;
3591;SDS011;1810;48.720;9.094;2023-03-14T00:14:50;744.33;;;698.20;;
3591;SDS011;1810;48.720;9.094;2023-03-14T00:17:18;690.60;;;650.10;;
3591;SDS011;1810;48.720;9.094;2023-03-14T00:19:47;724.97;;;680.95;;
3591;SDS011;1810;48.720;9.094;2023-03-14T00:22:18;739.50;;;692.72;;
3591;SDS011;1810;48.720;9.094;2023-03-14T00:24:47;708.58;;;666.58;;
3591;SDS011;1810;48.720;9.094;2023-03-14T00:27:15;724.47;;;680.78;;
3591;SDS011;1810;48.720;9.094;2023-03-14T00:29:44;709.10;;;666.65;;
3591;SDS011;1810;48.720;9.094;2023-03-14T00:32:14;703.17;;;661.28;;
3591;SDS011;1810;48.720;9.094;2023-03-14T00:34:43;765.92;;;717.90;;
3591;SDS011;1810;48.720;9.094;2023-03-14T00:37:11;737.20;;;691.63;;
3591;SDS011;1810;48.720;9.094;2023-03-14T00:39:40;725.05;;;680.33;;
3591;SDS011;1810;48.720;9.094;2023-03-14T00:42:09;708.78;;;666.15;;
3591;SDS011;1810;48.720;9.094;2023-03-14T00:44:37;715.88;;;672.53;;
3591;SDS011;1810;48.720;9.094;2023-03-14T00:47:06;713.85;;;670.33;;
3591;SDS011;1810;48.720;9.094;2023-03-14T00:49:36;746.85;;;700.03;;
3591;SDS011;1810;48.720;9.094;2023-03-14T00:52:05;705.28;;;662.80;;
3591;SDS011;1810;48.720;9.094;2023-03-14T00:54:33;720.13;;;676.92;;
3591;SDS011;1810;48.720;9.094;2023-03-14T00:57:02;689.10;;;648.03;;
3591;SDS011;1810;48.720;9.094;2023-03-14T00:59:30;738.83;;;692.45;;
3591;SDS011;1810;48.720;9.094;2023-03-14T01:01:59;696.25;;;654.88;;
3591;SDS011;1810;48.720;9.094;2023-03-14T01:04:28;720.20;;;676.65;;
3591;SDS011;1810;48.720;9.094;2023-03-14T01:06:59;687.30;;;646.88;;
3591;SDS011;1810;48.720;9.094;2023-03-14T01:09:27;710.22;;;667.53;;
3591;SDS011;1810;48.720;9.094;2023-03-14T01:11:56;712.65;;;669.63;;
3591;SDS011;1810;48.720;9.094;2023-03-14T01:14:24;699.67;;;657.35;;
3591;SDS011;1810;48.720;9.094;2023-03-14T01:16:53;713.10;;;670.03;;
3591;SDS011;1810;48.720;9.094;2023-03-14T01:19:26;665.73;;;626.97;;
3591;SDS011;1810;48.720;9.094;2023-03-14T01:21:55;654.80;;;617.40;;
3591;SDS011;1810;48.720;9.094;2023-03-14T01:24:25;712.97;;;669.92;;
3591;SDS011;1810;48.720;9.094;2023-03-14T01:26:54;703.53;;;662.13;;
3591;SDS011;1810;48.720;9.094;2023-03-14T01:29:23;693.10;;;651.95;;
3591;SDS011;1810;48.720;9.094;2023-03-14T01:31:51;688.78;;;647.78;;
3591;SDS011;1810;48.720;9.094;2023-03-14T01:34:20;727.08;;;682.38;;
3591;SDS011;1810;48.720;9.094;2023-03-14T01:36:48;724.72;;;680.55;;
3591;SDS011;1810;48.720;9.094;2023-03-14T01:39:17;665.45;;;626.50;;
3591;SDS011;1810;48.720;9.094;2023-03-14T01:41:47;680.20;;;640.85;;
3591;SDS011;1810;48.720;9.094;2023-03-14T01:44:16;671.88;;;632.92;;
3591;SDS011;1810;48.720;9.094;2023-03-14T01:46:44;693.75;;;653.13;;
3591;SDS011;1810;48.720;9.094;2023-03-14T01:49:15;667.03;;;628.25;;
3591;SDS011;1810;48.720;9.094;2023-03-14T01:51:47;663.30;;;625.40;;
3591;SDS011;1810;48.720;9.094;2023-03-14T01:54:19;649.85;;;613.38;;
3591;SDS011;1810;48.720;9.094;2023-03-14T01:56:51;666.38;;;628.33;;
3591;SDS011;1810;48.720;9.094;2023-03-14T01:59:23;669.28;;;630.85;;
3591;SDS011;1810;48.720;9.094;2023-03-14T02:01:52;667.92;;;629.33;;
3591;SDS011;1810;48.720;9.094;2023-03-14T02:04:22;692.33;;;651.55;;
3591;SDS011;1810;48.720;9.094;2023-03-14T02:06:52;654.10;;;616.92;;
3591;SDS011;1810;48.720;9.094;2023-03-14T02:09:26;666.75;;;628.13;;
3591;SDS011;1810;48.720;9.094;2023-03-14T02:11:56;665.33;;;627.55;;
3591;SDS011;1810;48.720;9.094;2023-03-14T02:14:27;650.85;;;613.90;;
3591;SDS011;1810;48.720;9.094;2023-03-14T02:16:58;666.28;;;627.85;;
3591;SDS011;1810;48.720;9.094;2023-03-14T02:19:31;660.45;;;622.42;;
3591;SDS011;1810;48.720;9.094;2023-03-14T02:22:21;671.35;;;633.20;;
3591;SDS011;1810;48.720;9.094;2023-03-14T02:24:51;713.38;;;670.33;;
3591;SDS011;1810;48.720;9.094;2023-03-14T02:27:26;676.97;;;638.40;;
3591;SDS011;1810;48.720;9.094;2023-03-14T02:29:56;671.28;;;632.58;;
3591;SDS011;1810;48.720;9.094;2023-03-14T02:32:26;669.90;;;630.92;;
3591;SDS011;1810;48.720;9.094;2023-03-14T02:34:57;687.35;;;647.95;;
3591;SDS011;1810;48.720;9.094;2023-03-14T02:37:28;676.85;;;637.35;;
3591;SDS011;1810;48.720;9.094;2023-03-14T02:40:01;682.70;;;642.83;;
3591;SDS011;1810;48.720;9.094;2023-03-14T02:42:32;662.67;;;624.90;;
3591;SDS011;1810;48.720;9.094;2023-03-14T02:45:25;686.17;;;645.80;;
3591;SDS011;1810;48.720;9.094;2023-03-14T02:48:05;668.63;;;629.75;;
3591;SDS011;1810;48.720;9.094;2023-03-14T02:50:35;676.42;;;636.90;;
3591;SDS011;1810;48.720;9.094;2023-03-14T02:53:04;727.70;;;683.05;;
3591;SDS011;1810;48.720;9.094;2023-03-14T02:55:33;680.53;;;640.30;;
3591;SDS011;1810;48.720;9.094;2023-03-14T02:58:03;674.60;;;635.75;;
3591;SDS011;1810;48.720;9.094;2023-03-14T03:00:31;661.67;;;624.50;;
3591;SDS011;1810;48.720;9.094;2023-03-14T03:03:01;671.55;;;632.53;;
3591;SDS011;1810;48.720;9.094;2023-03-14T03:05:32;696.75;;;655.50;;
3591;SDS011;1810;48.720;9.094;2023-03-14T03:08:00;688.05;;;647.85;;
3591;SDS011;1810;48.720;9.094;2023-03-14T03:10:29;663.53;;;625.63;;
3591;SDS011;1810;48.720;9.094;2023-03-14T03:12:59;716.53;;;672.42;;
3591;SDS011;1810;48.720;9.094;2023-03-14T03:15:29;699.22;;;657.03;;
3591;SDS011;1810;48.720;9.094;2023-03-14T03:17:58;692.50;;;652.05;;
3591;SDS011;1810;48.720;9.094;2023-03-14T03:20:26;695.95;;;654.95;;
3591;SDS011;1810;48.720;9.094;2023-03-14T03:22:55;737.83;;;692.03;;
3591;SDS011;1810;48.720;9.094;2023-03-14T03:25:23;680.30;;;640.78;;
3591;SDS011;1810;48.720;9.094;2023-03-14T03:27:52;682.10;;;642.72;;
3591;SDS011;1810;48.720;9.094;2023-03-14T03:30:20;664.70;;;626.30;;
3591;SDS011;1810;48.720;9.094;2023-03-14T03:32:51;683.67;;;643.53;;
3591;SDS011;1810;48.720;9.094;2023-03-14T03:35:19;667.47;;;628.78;;
3591;SDS011;1810;48.720;9.094;2023-03-14T03:37:48;688.25;;;648.25;;
3591;SDS011;1810;48.720;9.094;2023-03-14T03:40:16;683.78;;;643.63;;
3591;SDS011;1810;48.720;9.094;2023-03-14T03:42:45;674.38;;;635.75;;
3591;SDS011;1810;48.720;9.094;2023-03-14T03:45:14;659.15;;;621.50;;
3591;SDS011;1810;48.720;9.094;2023-03-14T03:47:42;659.63;;;622.00;;
3591;SDS011;1810;48.720;9.094;2023-03-14T03:50:12;663.55;;;625.47;;
3591;SDS011;1810;48.720;9.094;2023-03-14T03:52:41;646.22;;;610.10;;
3591;SDS011;1810;48.720;9.094;2023-03-14T03:55:09;673.55;;;634.92;;
3591;SDS011;1810;48.720;9.094;2023-03-14T03:57:37;675.63;;;636.45;;
3591;SDS011;1810;48.720;9.094;2023-03-14T04:00:07;649.80;;;613.03;;
3591;SDS011;1810;48.720;9.094;2023-03-14T04:02:38;632.58;;;597.35;;
3591;SDS011;1810;48.720;9.094;2023-03-14T04:05:07;655.38;;;618.28;;
3591;SDS011;1810;48.720;9.094;2023-03-14T04:07:37;628.85;;;594.72;;
3591;SDS011;1810;48.720;9.094;2023-03-14T04:10:06;653.13;;;616.20;;
3591;SDS011;1810;48.720;9.094;2023-03-14T04:12:35;653.28;;;617.08;;
3591;SDS011;1810;48.720;9.094;2023-03-14T04:15:04;657.28;;;620.50;;
3591;SDS011;1810;48.720;9.094;2023-03-14T04:17:33;641.42;;;605.33;;
3591;SDS011;1810;48.720;9.094;2023-03-14T04:20:02;604.10;;;571.40;;
3591;SDS011;1810;48.720;9.094;2023-03-14T04:22:31;634.42;;;599.35;;
3591;SDS011;1810;48.720;9.094;2023-03-14T04:25:01;648.95;;;613.17;;
3591;SDS011;1810;48.720;9.094;2023-03-14T04:27:30;623.38;;;589.25;;
3591;SDS011;1810;48.720;9.094;2023-03-14T04:29:59;632.15;;;597.00;;
3591;SDS011;1810;48.720;9.094;2023-03-14T04:32:27;660.58;;;622.78;;
3591;SDS011;1810;48.720;9.094;2023-03-14T04:34:56;632.03;;;597.22;;
3591;SDS011;1810;48.720;9.094;2023-03-14T04:37:24;642.30;;;605.92;;
3591;SDS011;1810;48.720;9.094;2023-03-14T04:39:53;589.05;;;557.45;;
3591;SDS011;1810;48.720;9.094;2023-03-14T04:42:22;657.55;;;620.50;;
3591;SDS011;1810;48.720;9.094;2023-03-14T04:44:51;621.28;;;587.22;;
3591;SDS011;1810;48.720;9.094;2023-03-14T04:47:19;597.40;;;565.55;;
3591;SDS011;1810;48.720;9.094;2023-03-14T04:49:48;631.40;;;596.38;;
3591;SDS011;1810;48.720;9.094;2023-03-14T04:52:16;628.75;;;594.17;;
3591;SDS011;1810;48.720;9.094;2023-03-14T04:54:45;628.70;;;594.50;;
3591;SDS011;1810;48.720;9.094;2023-03-14T04:57:13;604.08;;;571.92;;
3591;SDS011;1810;48.720;9.094;2023-03-14T04:59:43;631.03;;;596.22;;
3591;SDS011;1810;48.720;9.094;2023-03-14T05:02:12;603.33;;;571.10;;
3591;SDS011;1810;48.720;9.094;2023-03-14T05:04:41;634.28;;;599.05;;
3591;SDS011;1810;48.720;9.094;2023-03-14T05:07:09;626.88;;;592.63;;
3591;SDS011;1810;48.720;9.094;2023-03-14T05:09:40;665.13;;;627.13;;
3591;SDS011;1810;48.720;9.094;2023-03-14T05:12:08;634.90;;;599.85;;
3591;SDS011;1810;48.720;9.094;2023-03-14T05:14:37;581.03;;;550.55;;
3591;SDS011;1810;48.720;9.094;2023-03-14T05:17:07;640.53;;;604.78;;
3591;SDS011;1810;48.720;9.094;2023-03-14T05:19:35;630.13;;;595.15;;
3591;SDS011;1810;48.720;9.094;2023-03-14T05:22:04;627.38;;;593.28;;
3591;SDS011;1810;48.720;9.094;2023-03-14T05:24:33;619.55;;;585.60;;
3591;SDS011;1810;48.720;9.094;2023-03-14T05:27:02;635.38;;;601.00;;
3591;SDS011;1810;48.720;9.094;2023-03-14T05:29:36;619.40;;;585.75;;
3591;SDS011;1810;48.720;9.094;2023-03-14T05:32:04;585.05;;;553.97;;
3591;SDS011;1810;48.720;9.094;2023-03-14T05:34:35;592.95;;;561.63;;
3591;SDS011;1810;48.720;9.094;2023-03-14T05:37:03;599.50;;;567.45;;
3591;SDS011;1810;48.720;9.094;2023-03-14T05:39:34;579.58;;;548.80;;
3591;SDS011;1810;48.720;9.094;2023-03-14T05:42:02;627.67;;;592.95;;
3591;SDS011;1810;48.720;9.094;2023-03-14T05:44:31;625.15;;;590.92;;
3591;SDS011;1810;48.720;9.094;2023-03-14T05:47:00;616.60;;;583.53;;
3591;SDS011;1810;48.720;9.094;2023-03-14T05:49:28;575.38;;;544.80;;
3591;SDS011;1810;48.720;9.094;2023-03-14T05:51:59;600.70;;;568.35;;
3591;SDS011;1810;48.720;9.094;2023-03-14T05:54:28;617.47;;;583.63;;
3591;SDS011;1810;48.720;9.094;2023-03-14T05:56:56;578.25;;;547.50;;
3591;SDS011;1810;48.720;9.094;2023-03-14T05:59:25;581.53;;;550.55;;
3591;SDS011;1810;48.720;9.094;2023-03-14T06:01:53;550.78;;;522.65;;
3591;SDS011;1810;48.720;9.094;2023-03-14T06:04:22;594.53;;;562.95;;
3591;SDS011;1810;48.720;9.094;2023-03-14T06:06:51;615.88;;;582.53;;
3591;SDS011;1810;48.720;9.094;2023-03-14T06:09:21;583.60;;;552.67;;
3591;SDS011;1810;48.720;9.094;2023-03-14T06:11:49;589.80;;;558.63;;
3591;SDS011;1810;48.720;9.094;2023-03-14T06:14:18;618.55;;;584.80;;
3591;SDS011;1810;48.720;9.094;2023-03-14T06:16:46;515.33;;;489.42;;
3591;SDS011;1810;48.720;9.094;2023-03-14T06:19:15;585.53;;;554.60;;
3591;SDS011;1810;48.720;9.094;2023-03-14T06:21:43;583.85;;;553.25;;
3591;SDS011;1810;48.720;9.094;2023-03-14T06:24:12;569.05;;;539.53;;
3591;SDS011;1810;48.720;9.094;2023-03-14T06:26:42;485.38;;;461.75;;
3591;SDS011;1810;48.720;9.094;2023-03-14T06:29:11;615.58;;;580.67;;
3591;SDS011;1810;48.720;9.094;2023-03-14T06:31:42;468.42;;;445.60;;
3591;SDS011;1810;48.720;9.094;2023-03-14T06:34:10;560.47;;;531.42;;
3591;SDS011;1810;48.720;9.094;2023-03-14T06:36:39;476.90;;;454.15;;
3591;SDS011;1810;48.720;9.094;2023-03-14T06:39:08;744.63;;;696.35;;
3591;SDS011;1810;48.720;9.094;2023-03-14T06:41:36;522.95;;;496.40;;
3591;SDS011;1810;48.720;9.094;2023-03-14T06:44:06;499.73;;;475.27;;
3591;SDS011;1810;48.720;9.094;2023-03-14T06:46:35;530.47;;;503.73;;
3591;SDS011;1810;48.720;9.094;2023-03-14T06:49:03;441.73;;;421.02;;
3591;SDS011;1810;48.720;9.094;2023-03-14T06:51:32;472.58;;;449.30;;
3591;SDS011;1810;48.720;9.094;2023-03-14T06:54:00;506.67;;;482.40;;
3591;SDS011;1810;48.720;9.094;2023-03-14T06:56:29;466.92;;;444.70;;
3591;SDS011;1810;48.720;9.094;2023-03-14T06:59:00;532.75;;;506.00;;
3591;SDS011;1810;48.720;9.094;2023-03-14T07:01:30;562.78;;;533.13;;
3591;SDS011;1810;48.720;9.094;2023-03-14T07:04:01;471.20;;;449.00;;
3591;SDS011;1810;48.720;9.094;2023-03-14T07:06:30;524.20;;;496.67;;
3591;SDS011;1810;48.720;9.094;2023-03-14T07:08:59;476.60;;;453.58;;
3591;SDS011;1810;48.720;9.094;2023-03-14T07:11:29;454.67;;;433.17;;
3591;SDS011;1810;48.720;9.094;2023-03-14T07:13:58;432.05;;;411.40;;
3591;SDS011;1810;48.720;9.094;2023-03-14T07:16:27;401.98;;;383.80;;
3591;SDS011;1810;48.720;9.094;2023-03-14T07:19:00;424.58;;;405.17;;
3591;SDS011;1810;48.720;9.094;2023-03-14T07:21:29;543.47;;;511.63;;
3591;SDS011;1810;48.720;9.094;2023-03-14T07:24:01;413.73;;;394.95;;
3591;SDS011;1810;48.720;9.094;2023-03-14T07:26:29;401.77;;;383.55;;
3591;SDS011;1810;48.720;9.094;2023-03-14T07:29:01;438.15;;;417.92;;
3591;SDS011;1810;48.720;9.094;2023-03-14T07:31:30;726.58;;;681.97;;
3591;SDS011;1810;48.720;9.094;2023-03-14T07:33:58;577.35;;;546.67;;
3591;SDS011;1810;48.720;9.094;2023-03-14T07:36:29;534.83;;;505.90;;
3591;SDS011;1810;48.720;9.094;2023-03-14T07:38:58;419.98;;;400.90;;
3591;SDS011;1810;48.720;9.094;2023-03-14T07:41:26;422.15;;;402.65;;
3591;SDS011;1810;48.720;9.094;2023-03-14T07:43:55;389.20;;;371.85;;
3591;SDS011;1810;48.720;9.094;2023-03-14T07:46:23;465.70;;;443.40;;
3591;SDS011;1810;48.720;9.094;2023-03-14T07:48:52;413.25;;;394.33;;
3591;SDS011;1810;48.720;9.094;2023-03-14T07:51:21;392.80;;;375.33;;
3591;SDS011;1810;48.720;9.094;2023-03-14T07:53:50;402.67;;;384.55;;
3591;SDS011;1810;48.720;9.094;2023-03-14T07:56:19;483.80;;;460.40;;
3591;SDS011;1810;48.720;9.094;2023-03-14T07:58:47;457.35;;;435.73;;
3591;SDS011;1810;48.720;9.094;2023-03-14T08:01:16;414.02;;;395.08;;
3591;SDS011;1810;48.720;9.094;2023-03-14T08:03:44;400.38;;;382.63;;
3591;SDS011;1810;48.720;9.094;2023-03-14T08:06:13;441.83;;;421.63;;
3591;SDS011;1810;48.720;9.094;2023-03-14T08:08:42;455.00;;;433.60;;
3591;SDS011;1810;48.720;9.094;2023-03-14T08:11:11;448.95;;;427.98;;
3591;SDS011;1810;48.720;9.094;2023-03-14T08:13:39;543.35;;;514.97;;
3591;SDS011;1810;48.720;9.094;2023-03-14T08:16:08;412.25;;;393.75;;
3591;SDS011;1810;48.720;9.094;2023-03-14T08:18:36;438.38;;;418.20;;
3591;SDS011;1810;48.720;9.094;2023-03-14T08:21:05;493.63;;;467.75;;
3591;SDS011;1810;48.720;9.094;2023-03-14T08:23:34;407.92;;;389.42;;
3591;SDS011;1810;48.720;9.094;2023-03-14T08:26:04;393.48;;;375.85;;
3591;SDS011;1810;48.720;9.094;2023-03-14T08:28:32;446.58;;;425.33;;
3591;SDS011;1810;48.720;9.094;2023-03-14T08:31:01;577.72;;;546.53;;
3591;SDS011;1810;48.720;9.094;2023-03-14T08:33:30;353.35;;;337.50;;
3591;SDS011;1810;48.720;9.094;2023-03-14T08:35:59;481.65;;;458.25;;
3591;SDS011;1810;48.720;9.094;2023-03-14T08:38:27;494.20;;;470.27;;
3591;SDS011;1810;48.720;9.094;2023-03-14T08:40:56;452.88;;;431.77;;
3591;SDS011;1810;48.720;9.094;2023-03-14T08:43:27;601.85;;;567.58;;
3591;SDS011;1810;48.720;9.094;2023-03-14T08:45:59;404.63;;;386.33;;
3591;SDS011;1810;48.720;9.094;2023-03-14T08:48:30;378.08;;;361.27;;
3591;SDS011;1810;48.720;9.094;2023-03-14T08:51:03;364.92;;;348.85;;
3591;SDS011;1810;48.720;9.094;2023-03-14T08:53:33;425.27;;;405.73;;
3591;SDS011;1810;48.720;9.094;2023-03-14T08:56:02;390.95;;;373.25;;
3591;SDS011;1810;48.720;9.094;2023-03-14T08:58:33;366.55;;;350.42;;
3591;SDS011;1810;48.720;9.094;2023-03-14T09:01:04;717.72;;;670.97;;
3591;SDS011;1810;48.720;9.094;2023-03-14T09:03:33;554.85;;;524.58;;
3591;SDS011;1810;48.720;9.094;2023-03-14T09:06:04;476.42;;;453.75;;
3591;SDS011;1810;48.720;9.094;2023-03-14T09:08:37;470.17;;;447.70;;
3591;SDS011;1810;48.720;9.094;2023-03-14T09:11:07;526.95;;;500.45;;
3591;SDS011;1810;48.720;9.094;2023-03-14T09:13:37;499.90;;;475.35;;
3591;SDS011;1810;48.720;9.094;2023-03-14T09:16:08;453.13;;;431.75;;
3591;SDS011;1810;48.720;9.094;2023-03-14T09:18:37;436.30;;;415.95;;
3591;SDS011;1810;48.720;9.094;2023-03-14T09:21:06;524.05;;;498.17;;
3591;SDS011;1810;48.720;9.094;2023-03-14T09:23:35;475.50;;;452.85;;
3591;SDS011;1810;48.720;9.094;2023-03-14T09:26:05;517.70;;;491.98;;
3591;SDS011;1810;48.720;9.094;2023-03-14T09:28:33;431.98;;;411.85;;
3591;SDS011;1810;48.720;9.094;2023-03-14T09:31:07;429.63;;;409.60;;
3591;SDS011;1810;48.720;9.094;2023-03-14T09:33:36;508.92;;;482.70;;
3591;SDS011;1810;48.720;9.094;2023-03-14T09:36:05;500.75;;;475.27;;
3591;SDS011;1810;48.720;9.094;2023-03-14T09:38:34;476.90;;;453.45;;
3591;SDS011;1810;48.720;9.094;2023-03-14T09:41:03;471.70;;;449.55;;
3591;SDS011;1810;48.720;9.094;2023-03-14T09:43:40;722.80;;;674.83;;
3591;SDS011;1810;48.720;9.094;2023-03-14T09:46:11;460.50;;;438.83;;
3591;SDS011;1810;48.720;9.094;2023-03-14T09:48:40;418.05;;;398.90;;
3591;SDS011;1810;48.720;9.094;2023-03-14T09:51:11;438.73;;;418.23;;
3591;SDS011;1810;48.720;9.094;2023-03-14T09:53:43;470.27;;;447.95;;
3591;SDS011;1810;48.720;9.094;2023-03-14T09:56:13;458.60;;;436.90;;
3591;SDS011;1810;48.720;9.094;2023-03-14T09:58:45;446.88;;;425.20;;
3591;SDS011;1810;48.720;9.094;2023-03-14T10:01:18;465.02;;;443.00;;
3591;SDS011;1810;48.720;9.094;2023-03-14T10:03:50;482.48;;;459.13;;
3591;SDS011;1810;48.720;9.094;2023-03-14T10:06:23;517.80;;;492.35;;
3591;SDS011;1810;48.720;9.094;2023-03-14T10:08:54;504.83;;;479.80;;
3591;SDS011;1810;48.720;9.094;2023-03-14T10:11:26;465.00;;;443.05;;
3591;SDS011;1810;48.720;9.094;2023-03-14T10:14:05;472.10;;;449.42;;
3591;SDS011;1810;48.720;9.094;2023-03-14T10:16:36;499.13;;;474.85;;
3591;SDS011;1810;48.720;9.094;2023-03-14T10:19:10;462.25;;;440.20;;
3591;SDS011;1810;48.720;9.094;2023-03-14T10:21:40;431.70;;;411.83;;
3591;SDS011;1810;48.720;9.094;2023-03-14T10:24:15;541.72;;;512.67;;
3591;SDS011;1810;48.720;9.094;2023-03-14T10:26:47;488.33;;;464.67;;
3591;SDS011;1810;48.720;9.094;2023-03-14T10:29:22;410.90;;;392.27;;
3591;SDS011;1810;48.720;9.094;2023-03-14T10:31:53;512.67;;;486.33;;
3591;SDS011;1810;48.720;9.094;2023-03-14T10:34:23;439.67;;;419.23;;
3591;SDS011;1810;48.720;9.094;2023-03-14T10:36:54;458.42;;;436.52;;
3591;SDS011;1810;48.720;9.094;2023-03-14T10:39:26;410.23;;;391.25;;
3591;SDS011;1810;48.720;9.094;2023-03-14T10:42:01;429.40;;;409.60;;
3591;SDS011;1810;48.720;9.094;2023-03-14T10:44:32;413.48;;;394.45;;
3591;SDS011;1810;48.720;9.094;2023-03-14T10:47:04;477.73;;;454.85;;
3591;SDS011;1810;48.720;9.094;2023-03-14T10:49:33;475.75;;;452.67;;
3591;SDS011;1810;48.720;9.094;2023-03-14T10:52:12;474.65;;;451.98;;
3591;SDS011;1810;48.720;9.094;2023-03-14T10:54:46;482.38;;;459.17;;
3591;SDS011;1810;48.720;9.094;2023-03-14T10:57:18;520.03;;;494.38;;
3591;SDS011;1810;48.720;9.094;2023-03-14T10:59:47;508.92;;;484.00;;
3591;SDS011;1810;48.720;9.094;2023-03-14T11:02:26;527.85;;;501.63;;
3591;SDS011;1810;48.720;9.094;2023-03-14T11:05:04;544.83;;;517.05;;
3591;SDS011;1810;48.720;9.094;2023-03-14T11:07:40;532.40;;;506.00;;
3591;SDS011;1810;48.720;9.094;2023-03-14T11:10:11;531.70;;;504.88;;
3591;SDS011;1810;48.720;9.094;2023-03-14T11:13:03;476.88;;;454.02;;
3591;SDS011;1810;48.720;9.094;2023-03-14T11:15:56;538.67;;;511.13;;
3591;SDS011;1810;48.720;9.094;2023-03-14T11:24:24;450.48;;;429.33;;
3591;SDS011;1810;48.720;9.094;2023-03-14T11:26:59;577.25;;;547.28;;
3591;SDS011;1810;48.720;9.094;2023-03-14T11:29:37;509.25;;;484.48;;
3591;SDS011;1810;48.720;9.094;2023-03-14T11:32:35;499.13;;;475.02;;
3591;SDS011;1810;48.720;9.094;2023-03-14T11:35:08;494.42;;;470.17;;
3591;SDS011;1810;48.720;9.094;2023-03-14T11:37:47;839.17;;;765.85;;
3591;SDS011;1810;48.720;9.094;2023-03-14T11:40:20;503.35;;;478.75;;
3591;SDS011;1810;48.720;9.094;2023-03-14T11:42:53;651.65;;;615.15;;
3591;SDS011;1810;48.720;9.094;2023-03-14T11:45:29;596.53;;;564.15;;
3591;SDS011;1810;48.720;9.094;2023-03-14T11:50:43;625.35;;;589.42;;
3591;SDS011;1810;48.720;9.094;2023-03-14T11:53:29;496.70;;;472.88;;
3591;SDS011;1810;48.720;9.094;2023-03-14T11:56:11;573.22;;;542.53;;
3591;SDS011;1810;48.720;9.094;2023-03-14T11:58:55;508.80;;;483.92;;
3591;SDS011;1810;48.720;9.094;2023-03-14T12:01:51;525.20;;;499.23;;
3591;SDS011;1810;48.720;9.094;2023-03-14T12:04:41;530.78;;;504.52;;
3591;SDS011;1810;48.720;9.094;2023-03-14T12:07:17;551.97;;;523.28;;
3591;SDS011;1810;48.720;9.094;2023-03-14T12:09:51;614.30;;;579.70;;
3591;SDS011;1810;48.720;9.094;2023-03-14T12:12:24;594.53;;;562.80;;
3591;SDS011;1810;48.720;9.094;2023-03-14T12:14:56;560.65;;;530.97;;
3591;SDS011;1810;48.720;9.094;2023-03-14T12:17:33;496.58;;;472.25;;
3591;SDS011;1810;48.720;9.094;2023-03-14T12:20:04;507.08;;;482.55;;
3591;SDS011;1810;48.720;9.094;2023-03-14T12:22:41;471.00;;;448.75;;
3591;SDS011;1810;48.720;9.094;2023-03-14T12:25:15;538.35;;;511.25;;
3591;SDS011;1810;48.720;9.094;2023-03-14T12:28:16;477.08;;;454.23;;
3591;SDS011;1810;48.720;9.094;2023-03-14T12:30:48;450.55;;;429.45;;
3591;SDS011;1810;48.720;9.094;2023-03-14T12:33:27;500.95;;;476.58;;
3591;SDS011;1810;48.720;9.094;2023-03-14T12:35:57;464.02;;;442.00;;
3591;SDS011;1810;48.720;9.094;2023-03-14T12:38:32;467.65;;;444.85;;
3591;SDS011;1810;48.720;9.094;2023-03-14T12:41:42;467.33;;;444.58;;
3591;SDS011;1810;48.720;9.094;2023-03-14T12:50:19;466.92;;;444.35;;
3591;SDS011;1810;48.720;9.094;2023-03-14T12:52:58;417.60;;;398.15;;
3591;SDS011;1810;48.720;9.094;2023-03-14T12:55:36;444.13;;;423.10;;
3591;SDS011;1810;48.720;9.094;2023-03-14T12:58:10;321.10;;;307.70;;
3591;SDS011;1810;48.720;9.094;2023-03-14T13:00:42;331.50;;;317.33;;
3591;SDS011;1810;48.720;9.094;2023-03-14T13:03:15;373.50;;;356.92;;
3591;SDS011;1810;48.720;9.094;2023-03-14T13:05:51;323.75;;;309.95;;
3591;SDS011;1810;48.720;9.094;2023-03-14T13:08:35;278.38;;;266.73;;
3591;SDS011;1810;48.720;9.094;2023-03-14T13:11:07;275.95;;;264.55;;
3591;SDS011;1810;48.720;9.094;2023-03-14T13:13:42;278.25;;;266.70;;
3591;SDS011;1810;48.720;9.094;2023-03-14T13:16:15;256.48;;;245.93;;
3591;SDS011;1810;48.720;9.094;2023-03-14T13:18:49;235.70;;;226.07;;
3591;SDS011;1810;48.720;9.094;2023-03-14T13:21:20;290.45;;;277.85;;
3591;SDS011;1810;48.720;9.094;2023-03-14T13:23:56;176.15;;;168.80;;
3591;SDS011;1810;48.720;9.094;2023-03-14T13:26:32;195.93;;;187.85;;
3591;SDS011;1810;48.720;9.094;2023-03-14T13:29:17;203.77;;;195.40;;
3591;SDS011;1810;48.720;9.094;2023-03-14T13:31:49;200.10;;;191.73;;
3591;SDS011;1810;48.720;9.094;2023-03-14T13:34:19;174.05;;;166.85;;
3591;SDS011;1810;48.720;9.094;2023-03-14T13:36:51;183.73;;;176.13;;
3591;SDS011;1810;48.720;9.094;2023-03-14T13:39:20;288.65;;;275.63;;
3591;SDS011;1810;48.720;9.094;2023-03-14T13:41:51;343.42;;;326.77;;
3591;SDS011;1810;48.720;9.094;2023-03-14T13:44:23;173.73;;;166.63;;
3591;SDS011;1810;48.720;9.094;2023-03-14T13:46:57;253.85;;;242.73;;
3591;SDS011;1810;48.720;9.094;2023-03-14T13:49:33;226.82;;;217.05;;
3591;SDS011;1810;48.720;9.094;2023-03-14T13:52:20;193.38;;;185.60;;
3591;SDS011;1810;48.720;9.094;2023-03-14T13:54:52;215.00;;;206.07;;
3591;SDS011;1810;48.720;9.094;2023-03-14T13:57:21;287.92;;;274.95;;
3591;SDS011;1810;48.720;9.094;2023-03-14T14:02:45;268.80;;;256.88;;
3591;SDS011;1810;48.720;9.094;2023-03-14T14:05:14;196.07;;;188.00;;
3591;SDS011;1810;48.720;9.094;2023-03-14T14:07:43;198.80;;;190.18;;
3591;SDS011;1810;48.720;9.094;2023-03-14T14:10:12;147.70;;;141.57;;
3591;SDS011;1810;48.720;9.094;2023-03-14T14:12:42;207.65;;;198.27;;
3591;SDS011;1810;48.720;9.094;2023-03-14T14:15:18;154.07;;;147.70;;
3591;SDS011;1810;48.720;9.094;2023-03-14T14:17:49;187.30;;;179.68;;
3591;SDS011;1810;48.720;9.094;2023-03-14T14:20:21;162.35;;;155.65;;
3591;SDS011;1810;48.720;9.094;2023-03-14T14:22:50;155.38;;;149.02;;
3591;SDS011;1810;48.720;9.094;2023-03-14T14:25:19;157.75;;;151.23;;
3591;SDS011;1810;48.720;9.094;2023-03-14T14:27:48;259.05;;;247.32;;
3591;SDS011;1810;48.720;9.094;2023-03-14T14:30:27;290.95;;;276.23;;
3591;SDS011;1810;48.720;9.094;2023-03-14T14:33:11;156.95;;;150.38;;
3591;SDS011;1810;48.720;9.094;2023-03-14T14:35:50;191.77;;;183.07;;
3591;SDS011;1810;48.720;9.094;2023-03-14T14:38:20;221.90;;;211.02;;
3591;SDS011;1810;48.720;9.094;2023-03-14T14:40:50;421.70;;;398.25;;
3591;SDS011;1810;48.720;9.094;2023-03-14T14:43:21;160.88;;;154.20;;
3591;SDS011;1810;48.720;9.094;2023-03-14T14:45:53;497.23;;;469.15;;
3591;SDS011;1810;48.720;9.094;2023-03-14T14:48:22;475.88;;;448.10;;
3591;SDS011;1810;48.720;9.094;2023-03-14T14:50:55;261.73;;;249.73;;
3591;SDS011;1810;48.720;9.094;2023-03-14T14:53:27;170.75;;;163.55;;
3591;SDS011;1810;48.720;9.094;2023-03-14T14:55:58;201.02;;;192.60;;
3591;SDS011;1810;48.720;9.094;2023-03-14T14:58:27;172.15;;;164.88;;
3591;SDS011;1810;48.720;9.094;2023-03-14T15:00:59;236.88;;;224.80;;
3591;SDS011;1810;48.720;9.094;2023-03-14T15:03:32;170.20;;;163.20;;